sensor_id;sensor_type;location;lat;lon;timestamp;pressure;altitude;pressure_sealevel;temperature
34023;BMP280;20673;48.980;8.138;2022-12-07T00:00:47;100346.22;;;4.77
34023;BMP280;20673;48.980;8.138;2022-12-07T00:03:13;100344.58;;;4.77
34023;BMP280;20673;48.980;8.138;2022-12-07T00:05:39;100341.70;;;4.75
34023;BMP280;20673;48.980;8.138;2022-12-07T00:08:05;100337.54;;;4.73
34023;BMP280;20673;48.980;8.138;2022-12-07T00:10:33;100335.91;;;4.73
34023;BMP280;20673;48.980;8.138;2022-12-07T00:12:59;100333.00;;;4.72
34023;BMP280;20673;48.980;8.138;2022-12-07T00:15:26;100331.98;;;4.70
34023;BMP280;20673;48.980;8.138;2022-12-07T00:17:51;100334.89;;;4.70
34023;BMP280;20673;48.980;8.138;2022-12-07T00:20:17;100334.01;;;4.69
34023;BMP280;20673;48.980;8.138;2022-12-07T00:22:43;100334.75;;;4.72
34023;BMP280;20673;48.980;8.138;2022-12-07T00:25:09;100336.43;;;4.72
34023;BMP280;20673;48.980;8.138;2022-12-07T00:27:35;100335.62;;;4.72
34023;BMP280;20673;48.980;8.138;2022-12-07T00:30:02;100332.28;;;4.69
34023;BMP280;20673;48.980;8.138;2022-12-07T00:32:28;100336.22;;;4.67
34023;BMP280;20673;48.980;8.138;2022-12-07T00:34:54;100335.62;;;4.66
34023;BMP280;20673;48.980;8.138;2022-12-07T00:37:20;100336.92;;;4.66
34023;BMP280;20673;48.980;8.138;2022-12-07T00:39:46;100334.04;;;4.64
34023;BMP280;20673;48.980;8.138;2022-12-07T00:42:12;100333.93;;;4.65
34023;BMP280;20673;48.980;8.138;2022-12-07T00:44:38;100334.12;;;4.62
34023;BMP280;20673;48.980;8.138;2022-12-07T00:47:04;100333.97;;;4.64
34023;BMP280;20673;48.980;8.138;2022-12-07T00:49:30;100329.18;;;4.64
34023;BMP280;20673;48.980;8.138;2022-12-07T00:51:56;100336.36;;;4.64
34023;BMP280;20673;48.980;8.138;2022-12-07T00:54:22;100332.93;;;4.63
34023;BMP280;20673;48.980;8.138;2022-12-07T00:56:48;100333.50;;;4.63
34023;BMP280;20673;48.980;8.138;2022-12-07T00:59:14;100336.08;;;4.65
34023;BMP280;20673;48.980;8.138;2022-12-07T01:01:40;100329.03;;;4.62
34023;BMP280;20673;48.980;8.138;2022-12-07T01:04:06;100324.82;;;4.62
34023;BMP280;20673;48.980;8.138;2022-12-07T01:06:32;100317.70;;;4.63
34023;BMP280;20673;48.980;8.138;2022-12-07T01:08:59;100309.00;;;4.63
34023;BMP280;20673;48.980;8.138;2022-12-07T01:11:27;100308.50;;;4.60
34023;BMP280;20673;48.980;8.138;2022-12-07T01:13:55;100312.00;;;4.55
34023;BMP280;20673;48.980;8.138;2022-12-07T01:16:23;100314.35;;;4.57
34023;BMP280;20673;48.980;8.138;2022-12-07T01:18:52;100315.50;;;4.57
34023;BMP280;20673;48.980;8.138;2022-12-07T01:21:23;100325.58;;;4.60
34023;BMP280;20673;48.980;8.138;2022-12-07T01:23:50;100326.46;;;4.60
34023;BMP280;20673;48.980;8.138;2022-12-07T01:26:20;100328.87;;;4.60
34023;BMP280;20673;48.980;8.138;2022-12-07T01:28:46;100333.65;;;4.60
34023;BMP280;20673;48.980;8.138;2022-12-07T01:31:14;100336.28;;;4.60
34023;BMP280;20673;48.980;8.138;2022-12-07T01:33:42;100339.47;;;4.60
34023;BMP280;20673;48.980;8.138;2022-12-07T01:36:17;100337.20;;;4.55
34023;BMP280;20673;48.980;8.138;2022-12-07T01:38:45;100342.65;;;4.52
34023;BMP280;20673;48.980;8.138;2022-12-07T01:41:11;100342.93;;;4.49
34023;BMP280;20673;48.980;8.138;2022-12-07T01:46:23;100343.06;;;4.42
34023;BMP280;20673;48.980;8.138;2022-12-07T01:48:49;100338.60;;;4.38
34023;BMP280;20673;48.980;8.138;2022-12-07T01:51:15;100344.06;;;4.35
34023;BMP280;20673;48.980;8.138;2022-12-07T01:53:43;100340.75;;;4.32
34023;BMP280;20673;48.980;8.138;2022-12-07T01:56:17;100342.20;;;4.30
34023;BMP280;20673;48.980;8.138;2022-12-07T01:58:40;100338.41;;;4.30
34023;BMP280;20673;48.980;8.138;2022-12-07T02:01:06;100341.64;;;4.31
34023;BMP280;20673;48.980;8.138;2022-12-07T02:03:41;100345.58;;;4.32
34023;BMP280;20673;48.980;8.138;2022-12-07T02:06:08;100342.37;;;4.27
34023;BMP280;20673;48.980;8.138;2022-12-07T02:08:35;100342.11;;;4.28
34023;BMP280;20673;48.980;8.138;2022-12-07T02:11:03;100334.18;;;4.26
34023;BMP280;20673;48.980;8.138;2022-12-07T02:13:35;100331.34;;;4.25
34023;BMP280;20673;48.980;8.138;2022-12-07T02:22:00;100324.29;;;4.27
34023;BMP280;20673;48.980;8.138;2022-12-07T02:27:39;100318.22;;;4.29
34023;BMP280;20673;48.980;8.138;2022-12-07T02:30:14;100311.90;;;4.28
34023;BMP280;20673;48.980;8.138;2022-12-07T02:40:57;100319.59;;;4.40
34023;BMP280;20673;48.980;8.138;2022-12-07T02:43:28;100324.67;;;4.41
34023;BMP280;20673;48.980;8.138;2022-12-07T02:46:04;100332.03;;;4.39
34023;BMP280;20673;48.980;8.138;2022-12-07T02:48:32;100328.54;;;4.43
34023;BMP280;20673;48.980;8.138;2022-12-07T02:50:58;100321.00;;;4.42
34023;BMP280;20673;48.980;8.138;2022-12-07T02:53:36;100311.40;;;4.42
34023;BMP280;20673;48.980;8.138;2022-12-07T02:56:16;100307.86;;;4.44
34023;BMP280;20673;48.980;8.138;2022-12-07T03:01:30;100307.70;;;4.41
34023;BMP280;20673;48.980;8.138;2022-12-07T03:06:38;100306.33;;;4.43
34023;BMP280;20673;48.980;8.138;2022-12-07T03:09:58;100310.40;;;4.43
34023;BMP280;20673;48.980;8.138;2022-12-07T03:12:01;100308.49;;;4.42
34023;BMP280;20673;48.980;8.138;2022-12-07T03:14:34;100305.18;;;4.40
34023;BMP280;20673;48.980;8.138;2022-12-07T03:17:15;100301.11;;;4.38
34023;BMP280;20673;48.980;8.138;2022-12-07T03:19:43;100303.50;;;4.41
34023;BMP280;20673;48.980;8.138;2022-12-07T03:22:13;100310.62;;;4.40
34023;BMP280;20673;48.980;8.138;2022-12-07T03:24:49;100308.28;;;4.41
34023;BMP280;20673;48.980;8.138;2022-12-07T03:27:19;100308.33;;;4.42
34023;BMP280;20673;48.980;8.138;2022-12-07T03:29:54;100312.29;;;4.44
34023;BMP280;20673;48.980;8.138;2022-12-07T03:32:24;100307.03;;;4.45
34023;BMP280;20673;48.980;8.138;2022-12-07T03:35:00;100306.87;;;4.44
34023;BMP280;20673;48.980;8.138;2022-12-07T03:37:34;100307.24;;;4.43
34023;BMP280;20673;48.980;8.138;2022-12-07T03:40:13;100307.20;;;4.44
34023;BMP280;20673;48.980;8.138;2022-12-07T03:42:39;100304.34;;;4.43
34023;BMP280;20673;48.980;8.138;2022-12-07T03:45:06;100301.62;;;4.45
34023;BMP280;20673;48.980;8.138;2022-12-07T03:47:41;100296.47;;;4.45
34023;BMP280;20673;48.980;8.138;2022-12-07T03:50:10;100296.86;;;4.43
34023;BMP280;20673;48.980;8.138;2022-12-07T03:52:39;100296.00;;;4.39
34023;BMP280;20673;48.980;8.138;2022-12-07T03:55:18;100296.06;;;4.38
34023;BMP280;20673;48.980;8.138;2022-12-07T03:57:45;100301.28;;;4.39
34023;BMP280;20673;48.980;8.138;2022-12-07T04:00:13;100296.68;;;4.37
34023;BMP280;20673;48.980;8.138;2022-12-07T04:02:41;100290.25;;;4.35
34023;BMP280;20673;48.980;8.138;2022-12-07T04:05:08;100285.48;;;4.38
34023;BMP280;20673;48.980;8.138;2022-12-07T04:07:34;100287.56;;;4.40
34023;BMP280;20673;48.980;8.138;2022-12-07T04:10:00;100285.15;;;4.38
34023;BMP280;20673;48.980;8.138;2022-12-07T04:12:26;100284.22;;;4.36
34023;BMP280;20673;48.980;8.138;2022-12-07T04:14:52;100289.81;;;4.34
34023;BMP280;20673;48.980;8.138;2022-12-07T04:17:18;100295.01;;;4.32
34023;BMP280;20673;48.980;8.138;2022-12-07T04:19:44;100294.14;;;4.34
34023;BMP280;20673;48.980;8.138;2022-12-07T04:22:10;100288.54;;;4.34
34023;BMP280;20673;48.980;8.138;2022-12-07T04:24:36;100288.86;;;4.35
34023;BMP280;20673;48.980;8.138;2022-12-07T04:27:02;100283.70;;;4.32
34023;BMP280;20673;48.980;8.138;2022-12-07T04:29:29;100284.96;;;4.32
34023;BMP280;20673;48.980;8.138;2022-12-07T04:31:54;100278.12;;;4.28
34023;BMP280;20673;48.980;8.138;2022-12-07T04:34:20;100281.39;;;4.28
34023;BMP280;20673;48.980;8.138;2022-12-07T04:36:47;100281.06;;;4.26
34023;BMP280;20673;48.980;8.138;2022-12-07T04:39:20;100278.86;;;4.24
34023;BMP280;20673;48.980;8.138;2022-12-07T04:41:46;100278.45;;;4.28
34023;BMP280;20673;48.980;8.138;2022-12-07T04:44:13;100284.15;;;4.24
34023;BMP280;20673;48.980;8.138;2022-12-07T04:46:40;100279.04;;;4.23
34023;BMP280;20673;48.980;8.138;2022-12-07T04:49:06;100283.34;;;4.23
34023;BMP280;20673;48.980;8.138;2022-12-07T04:51:32;100281.03;;;4.20
34023;BMP280;20673;48.980;8.138;2022-12-07T04:53:58;100274.00;;;4.26
34023;BMP280;20673;48.980;8.138;2022-12-07T04:56:25;100283.83;;;4.27
34023;BMP280;20673;48.980;8.138;2022-12-07T04:58:52;100282.83;;;4.23
34023;BMP280;20673;48.980;8.138;2022-12-07T05:01:19;100287.72;;;4.22
34023;BMP280;20673;48.980;8.138;2022-12-07T05:03:45;100288.72;;;4.21
34023;BMP280;20673;48.980;8.138;2022-12-07T05:06:11;100287.26;;;4.21
34023;BMP280;20673;48.980;8.138;2022-12-07T05:08:37;100291.97;;;4.19
34023;BMP280;20673;48.980;8.138;2022-12-07T05:11:04;100292.44;;;4.14
34023;BMP280;20673;48.980;8.138;2022-12-07T05:13:31;100288.79;;;4.17
34023;BMP280;20673;48.980;8.138;2022-12-07T05:15:57;100290.21;;;4.15
34023;BMP280;20673;48.980;8.138;2022-12-07T05:18:24;100284.89;;;4.16
34023;BMP280;20673;48.980;8.138;2022-12-07T05:20:50;100285.36;;;4.15
34023;BMP280;20673;48.980;8.138;2022-12-07T05:23:17;100286.91;;;4.13
34023;BMP280;20673;48.980;8.138;2022-12-07T05:25:45;100291.06;;;4.12
34023;BMP280;20673;48.980;8.138;2022-12-07T05:28:11;100293.96;;;4.09
34023;BMP280;20673;48.980;8.138;2022-12-07T05:30:37;100285.54;;;4.04
34023;BMP280;20673;48.980;8.138;2022-12-07T05:33:03;100282.08;;;4.08
34023;BMP280;20673;48.980;8.138;2022-12-07T05:35:30;100287.24;;;4.04
34023;BMP280;20673;48.980;8.138;2022-12-07T05:37:56;100287.17;;;4.04
34023;BMP280;20673;48.980;8.138;2022-12-07T05:40:23;100278.90;;;4.03
34023;BMP280;20673;48.980;8.138;2022-12-07T05:42:50;100281.61;;;4.05
34023;BMP280;20673;48.980;8.138;2022-12-07T05:45:16;100279.07;;;4.05
34023;BMP280;20673;48.980;8.138;2022-12-07T05:47:42;100278.92;;;4.02
34023;BMP280;20673;48.980;8.138;2022-12-07T05:50:08;100277.95;;;4.02
34023;BMP280;20673;48.980;8.138;2022-12-07T05:52:34;100272.58;;;4.07
34023;BMP280;20673;48.980;8.138;2022-12-07T05:55:00;100278.45;;;4.08
34023;BMP280;20673;48.980;8.138;2022-12-07T05:57:26;100278.65;;;4.07
34023;BMP280;20673;48.980;8.138;2022-12-07T05:59:52;100277.29;;;4.07
34023;BMP280;20673;48.980;8.138;2022-12-07T06:02:18;100284.39;;;4.08
34023;BMP280;20673;48.980;8.138;2022-12-07T06:04:45;100283.53;;;4.08
34023;BMP280;20673;48.980;8.138;2022-12-07T06:07:14;100280.83;;;4.04
34023;BMP280;20673;48.980;8.138;2022-12-07T06:09:41;100279.75;;;4.07
34023;BMP280;20673;48.980;8.138;2022-12-07T06:12:09;100279.43;;;4.11
34023;BMP280;20673;48.980;8.138;2022-12-07T06:14:54;100284.10;;;4.11
34023;BMP280;20673;48.980;8.138;2022-12-07T06:17:20;100286.16;;;4.08
34023;BMP280;20673;48.980;8.138;2022-12-07T06:19:46;100286.29;;;4.08
34023;BMP280;20673;48.980;8.138;2022-12-07T06:22:12;100288.75;;;4.06
34023;BMP280;20673;48.980;8.138;2022-12-07T06:24:39;100285.25;;;4.03
34023;BMP280;20673;48.980;8.138;2022-12-07T06:27:05;100287.59;;;4.03
34023;BMP280;20673;48.980;8.138;2022-12-07T06:29:31;100289.36;;;3.98
34023;BMP280;20673;48.980;8.138;2022-12-07T06:31:57;100290.39;;;4.02
34023;BMP280;20673;48.980;8.138;2022-12-07T06:34:24;100289.22;;;4.02
34023;BMP280;20673;48.980;8.138;2022-12-07T06:36:51;100288.67;;;3.99
34023;BMP280;20673;48.980;8.138;2022-12-07T06:39:20;100293.12;;;4.01
34023;BMP280;20673;48.980;8.138;2022-12-07T06:41:46;100287.48;;;4.02
34023;BMP280;20673;48.980;8.138;2022-12-07T06:44:13;100291.73;;;4.00
34023;BMP280;20673;48.980;8.138;2022-12-07T06:46:39;100294.06;;;4.02
34023;BMP280;20673;48.980;8.138;2022-12-07T06:49:05;100299.29;;;4.00
34023;BMP280;20673;48.980;8.138;2022-12-07T06:51:32;100298.43;;;3.99
34023;BMP280;20673;48.980;8.138;2022-12-07T06:53:59;100290.46;;;3.98
34023;BMP280;20673;48.980;8.138;2022-12-07T06:56:25;100295.28;;;4.00
34023;BMP280;20673;48.980;8.138;2022-12-07T06:58:50;100294.01;;;4.02
34023;BMP280;20673;48.980;8.138;2022-12-07T07:01:17;100292.15;;;4.03
34023;BMP280;20673;48.980;8.138;2022-12-07T07:03:45;100295.73;;;3.99
34023;BMP280;20673;48.980;8.138;2022-12-07T07:06:12;100293.37;;;4.01
34023;BMP280;20673;48.980;8.138;2022-12-07T07:08:39;100290.44;;;4.02
34023;BMP280;20673;48.980;8.138;2022-12-07T07:11:06;100294.15;;;4.02
34023;BMP280;20673;48.980;8.138;2022-12-07T07:13:33;100290.95;;;4.04
34023;BMP280;20673;48.980;8.138;2022-12-07T07:15:59;100295.04;;;4.07
34023;BMP280;20673;48.980;8.138;2022-12-07T07:18:25;100289.65;;;4.05
34023;BMP280;20673;48.980;8.138;2022-12-07T07:20:52;100290.86;;;4.09
34023;BMP280;20673;48.980;8.138;2022-12-07T07:23:19;100293.15;;;4.10
34023;BMP280;20673;48.980;8.138;2022-12-07T07:25:45;100290.12;;;4.13
34023;BMP280;20673;48.980;8.138;2022-12-07T07:28:12;100295.28;;;4.11
34023;BMP280;20673;48.980;8.138;2022-12-07T07:30:38;100293.62;;;4.12
34023;BMP280;20673;48.980;8.138;2022-12-07T07:33:04;100290.47;;;4.14
34023;BMP280;20673;48.980;8.138;2022-12-07T07:35:32;100294.28;;;4.16
34023;BMP280;20673;48.980;8.138;2022-12-07T07:37:59;100296.03;;;4.15
34023;BMP280;20673;48.980;8.138;2022-12-07T07:40:25;100296.50;;;4.16
34023;BMP280;20673;48.980;8.138;2022-12-07T07:42:53;100297.11;;;4.18
34023;BMP280;20673;48.980;8.138;2022-12-07T07:45:20;100303.28;;;4.22
34023;BMP280;20673;48.980;8.138;2022-12-07T07:47:47;100305.29;;;4.25
34023;BMP280;20673;48.980;8.138;2022-12-07T07:50:13;100310.38;;;4.25
34023;BMP280;20673;48.980;8.138;2022-12-07T07:52:39;100309.29;;;4.28
34023;BMP280;20673;48.980;8.138;2022-12-07T07:55:06;100313.68;;;4.27
34023;BMP280;20673;48.980;8.138;2022-12-07T07:57:35;100312.43;;;4.32
34023;BMP280;20673;48.980;8.138;2022-12-07T08:00:06;100311.90;;;4.30
34023;BMP280;20673;48.980;8.138;2022-12-07T08:02:32;100314.22;;;4.30
34023;BMP280;20673;48.980;8.138;2022-12-07T08:04:58;100311.77;;;4.32
34023;BMP280;20673;48.980;8.138;2022-12-07T08:07:24;100313.37;;;4.37
34023;BMP280;20673;48.980;8.138;2022-12-07T08:09:50;100315.56;;;4.38
34023;BMP280;20673;48.980;8.138;2022-12-07T08:12:16;100316.90;;;4.38
34023;BMP280;20673;48.980;8.138;2022-12-07T08:14:42;100322.54;;;4.41
34023;BMP280;20673;48.980;8.138;2022-12-07T08:17:08;100327.78;;;4.41
34023;BMP280;20673;48.980;8.138;2022-12-07T08:19:34;100331.28;;;4.44
34023;BMP280;20673;48.980;8.138;2022-12-07T08:22:00;100331.90;;;4.43
34023;BMP280;20673;48.980;8.138;2022-12-07T08:24:26;100337.52;;;4.49
34023;BMP280;20673;48.980;8.138;2022-12-07T08:26:52;100329.89;;;4.48
34023;BMP280;20673;48.980;8.138;2022-12-07T08:29:18;100331.64;;;4.48
34023;BMP280;20673;48.980;8.138;2022-12-07T08:31:44;100336.04;;;4.53
34023;BMP280;20673;48.980;8.138;2022-12-07T08:34:11;100337.51;;;4.58
34023;BMP280;20673;48.980;8.138;2022-12-07T08:36:37;100340.01;;;4.58
34023;BMP280;20673;48.980;8.138;2022-12-07T08:39:03;100341.72;;;4.62
34023;BMP280;20673;48.980;8.138;2022-12-07T08:41:29;100340.94;;;4.60
34023;BMP280;20673;48.980;8.138;2022-12-07T08:43:56;100338.15;;;4.62
34023;BMP280;20673;48.980;8.138;2022-12-07T08:49:22;100345.53;;;4.65
34023;BMP280;20673;48.980;8.138;2022-12-07T08:51:45;100350.90;;;4.64
34023;BMP280;20673;48.980;8.138;2022-12-07T08:54:14;100350.30;;;4.67
34023;BMP280;20673;48.980;8.138;2022-12-07T08:56:40;100355.97;;;4.67
34023;BMP280;20673;48.980;8.138;2022-12-07T08:59:07;100351.16;;;4.68
34023;BMP280;20673;48.980;8.138;2022-12-07T09:01:33;100353.65;;;4.74
34023;BMP280;20673;48.980;8.138;2022-12-07T09:03:59;100346.42;;;4.78
34023;BMP280;20673;48.980;8.138;2022-12-07T09:06:25;100350.83;;;4.79
34023;BMP280;20673;48.980;8.138;2022-12-07T09:08:55;100348.69;;;4.80
34023;BMP280;20673;48.980;8.138;2022-12-07T09:11:21;100348.86;;;4.83
34023;BMP280;20673;48.980;8.138;2022-12-07T09:13:47;100349.31;;;4.84
34023;BMP280;20673;48.980;8.138;2022-12-07T09:16:13;100344.29;;;4.86
34023;BMP280;20673;48.980;8.138;2022-12-07T09:18:39;100346.06;;;4.89
34023;BMP280;20673;48.980;8.138;2022-12-07T09:21:05;100344.48;;;4.89
34023;BMP280;20673;48.980;8.138;2022-12-07T09:23:31;100350.60;;;4.91
34023;BMP280;20673;48.980;8.138;2022-12-07T09:26:02;100344.26;;;4.93
34023;BMP280;20673;48.980;8.138;2022-12-07T09:28:30;100340.68;;;4.92
34023;BMP280;20673;48.980;8.138;2022-12-07T09:30:57;100346.33;;;4.97
34023;BMP280;20673;48.980;8.138;2022-12-07T09:33:25;100347.28;;;4.99
34023;BMP280;20673;48.980;8.138;2022-12-07T09:35:51;100344.43;;;5.00
34023;BMP280;20673;48.980;8.138;2022-12-07T09:38:18;100343.59;;;5.05
34023;BMP280;20673;48.980;8.138;2022-12-07T09:40:45;100342.27;;;5.08
34023;BMP280;20673;48.980;8.138;2022-12-07T09:43:19;100338.91;;;5.09
34023;BMP280;20673;48.980;8.138;2022-12-07T09:45:47;100339.36;;;5.16
34023;BMP280;20673;48.980;8.138;2022-12-07T09:48:22;100340.23;;;5.23
34023;BMP280;20673;48.980;8.138;2022-12-07T09:50:51;100338.36;;;5.27
34023;BMP280;20673;48.980;8.138;2022-12-07T09:53:25;100337.64;;;5.34
34023;BMP280;20673;48.980;8.138;2022-12-07T09:55:51;100343.86;;;5.37
34023;BMP280;20673;48.980;8.138;2022-12-07T09:58:22;100339.22;;;5.39
34023;BMP280;20673;48.980;8.138;2022-12-07T10:00:52;100335.86;;;5.45
34023;BMP280;20673;48.980;8.138;2022-12-07T10:03:18;100336.36;;;5.45
34023;BMP280;20673;48.980;8.138;2022-12-07T10:05:47;100338.15;;;5.47
34023;BMP280;20673;48.980;8.138;2022-12-07T10:08:15;100335.89;;;5.47
34023;BMP280;20673;48.980;8.138;2022-12-07T10:10:43;100332.39;;;5.41
34023;BMP280;20673;48.980;8.138;2022-12-07T10:13:15;100326.67;;;5.45
34023;BMP280;20673;48.980;8.138;2022-12-07T10:18:27;100316.92;;;5.42
34023;BMP280;20673;48.980;8.138;2022-12-07T10:21:03;100313.86;;;5.46
34023;BMP280;20673;48.980;8.138;2022-12-07T10:23:29;100319.22;;;5.47
34023;BMP280;20673;48.980;8.138;2022-12-07T10:25:55;100327.89;;;5.36
34023;BMP280;20673;48.980;8.138;2022-12-07T10:28:22;100322.97;;;5.38
34023;BMP280;20673;48.980;8.138;2022-12-07T10:33:38;100316.74;;;5.41
34023;BMP280;20673;48.980;8.138;2022-12-07T10:36:34;100313.17;;;5.39
34023;BMP280;20673;48.980;8.138;2022-12-07T10:39:04;100313.83;;;5.45
34023;BMP280;20673;48.980;8.138;2022-12-07T10:41:30;100315.08;;;5.45
34023;BMP280;20673;48.980;8.138;2022-12-07T10:43:57;100305.43;;;5.50
34023;BMP280;20673;48.980;8.138;2022-12-07T10:47:11;100308.20;;;5.53
34023;BMP280;20673;48.980;8.138;2022-12-07T10:49:08;100310.20;;;5.57
34023;BMP280;20673;48.980;8.138;2022-12-07T11:07:56;100282.00;;;5.86
34023;BMP280;20673;48.980;8.138;2022-12-07T11:10:35;100278.04;;;5.83
34023;BMP280;20673;48.980;8.138;2022-12-07T11:18:14;100265.35;;;5.91
34023;BMP280;20673;48.980;8.138;2022-12-07T11:23:41;100259.26;;;6.03
34023;BMP280;20673;48.980;8.138;2022-12-07T11:31:34;100257.06;;;6.11
34023;BMP280;20673;48.980;8.138;2022-12-07T11:34:08;100255.54;;;6.07
34023;BMP280;20673;48.980;8.138;2022-12-07T11:41:52;100248.72;;;6.06
34023;BMP280;20673;48.980;8.138;2022-12-07T11:52:26;100237.93;;;6.13
34023;BMP280;20673;48.980;8.138;2022-12-07T11:54:53;100235.83;;;6.14
34023;BMP280;20673;48.980;8.138;2022-12-07T11:57:26;100241.91;;;6.16
34023;BMP280;20673;48.980;8.138;2022-12-07T11:59:57;100235.56;;;6.21
34023;BMP280;20673;48.980;8.138;2022-12-07T12:02:26;100229.72;;;6.23
34023;BMP280;20673;48.980;8.138;2022-12-07T12:04:55;100229.65;;;6.12
34023;BMP280;20673;48.980;8.138;2022-12-07T12:07:24;100229.12;;;6.16
34023;BMP280;20673;48.980;8.138;2022-12-07T12:10:04;100225.60;;;6.15
34023;BMP280;20673;48.980;8.138;2022-12-07T12:12:52;100227.52;;;6.10
34023;BMP280;20673;48.980;8.138;2022-12-07T12:18:18;100222.75;;;6.03
34023;BMP280;20673;48.980;8.138;2022-12-07T12:20:51;100224.39;;;6.01
34023;BMP280;20673;48.980;8.138;2022-12-07T12:23:20;100220.79;;;6.00
34023;BMP280;20673;48.980;8.138;2022-12-07T12:25:52;100221.54;;;5.96
34023;BMP280;20673;48.980;8.138;2022-12-07T12:33:35;100207.85;;;5.92
34023;BMP280;20673;48.980;8.138;2022-12-07T12:39:15;100210.14;;;5.93
34023;BMP280;20673;48.980;8.138;2022-12-07T12:47:38;100205.17;;;5.94
34023;BMP280;20673;48.980;8.138;2022-12-07T12:49:43;100208.09;;;5.95
34023;BMP280;20673;48.980;8.138;2022-12-07T12:55:12;100207.02;;;5.95
34023;BMP280;20673;48.980;8.138;2022-12-07T12:57:38;100208.11;;;5.94
34023;BMP280;20673;48.980;8.138;2022-12-07T13:00:22;100205.11;;;5.97
34023;BMP280;20673;48.980;8.138;2022-12-07T13:02:54;100197.13;;;5.96
34023;BMP280;20673;48.980;8.138;2022-12-07T13:05:23;100193.03;;;5.94
34023;BMP280;20673;48.980;8.138;2022-12-07T13:07:53;100192.39;;;5.94
34023;BMP280;20673;48.980;8.138;2022-12-07T13:10:38;100184.66;;;5.93
34023;BMP280;20673;48.980;8.138;2022-12-07T13:15:43;100184.12;;;5.94
34023;BMP280;20673;48.980;8.138;2022-12-07T13:29:14;100162.97;;;5.88
34023;BMP280;20673;48.980;8.138;2022-12-07T13:34:38;100160.72;;;5.89
34023;BMP280;20673;48.980;8.138;2022-12-07T13:40:09;100159.90;;;5.87
34023;BMP280;20673;48.980;8.138;2022-12-07T13:42:33;100156.18;;;5.92
34023;BMP280;20673;48.980;8.138;2022-12-07T13:45:20;100154.87;;;5.95
34023;BMP280;20673;48.980;8.138;2022-12-07T13:47:52;100155.23;;;5.96
34023;BMP280;20673;48.980;8.138;2022-12-07T13:50:24;100157.57;;;6.00
34023;BMP280;20673;48.980;8.138;2022-12-07T13:52:55;100158.99;;;5.99
34023;BMP280;20673;48.980;8.138;2022-12-07T13:55:20;100155.45;;;6.00
34023;BMP280;20673;48.980;8.138;2022-12-07T13:57:49;100153.39;;;6.01
34023;BMP280;20673;48.980;8.138;2022-12-07T14:00:26;100153.90;;;5.97
34023;BMP280;20673;48.980;8.138;2022-12-07T14:02:59;100152.45;;;6.00
34023;BMP280;20673;48.980;8.138;2022-12-07T14:05:34;100156.28;;;5.99
34023;BMP280;20673;48.980;8.138;2022-12-07T14:08:03;100156.87;;;5.98
34023;BMP280;20673;48.980;8.138;2022-12-07T14:10:32;100154.11;;;5.96
34023;BMP280;20673;48.980;8.138;2022-12-07T14:12:59;100156.33;;;5.96
34023;BMP280;20673;48.980;8.138;2022-12-07T14:15:32;100158.64;;;5.91
34023;BMP280;20673;48.980;8.138;2022-12-07T14:17:57;100164.22;;;5.93
34023;BMP280;20673;48.980;8.138;2022-12-07T14:20:32;100160.34;;;5.91
34023;BMP280;20673;48.980;8.138;2022-12-07T14:22:59;100153.08;;;5.90
34023;BMP280;20673;48.980;8.138;2022-12-07T14:25:26;100156.48;;;5.88
34023;BMP280;20673;48.980;8.138;2022-12-07T14:27:55;100153.70;;;5.89
34023;BMP280;20673;48.980;8.138;2022-12-07T14:30:23;100154.77;;;5.87
34023;BMP280;20673;48.980;8.138;2022-12-07T14:32:53;100158.70;;;5.86
34023;BMP280;20673;48.980;8.138;2022-12-07T14:35:20;100161.81;;;5.83
34023;BMP280;20673;48.980;8.138;2022-12-07T14:37:47;100158.48;;;5.83
34023;BMP280;20673;48.980;8.138;2022-12-07T14:40:26;100159.50;;;5.83
34023;BMP280;20673;48.980;8.138;2022-12-07T14:43:02;100158.30;;;5.80
34023;BMP280;20673;48.980;8.138;2022-12-07T14:45:28;100164.25;;;5.77
34023;BMP280;20673;48.980;8.138;2022-12-07T14:47:54;100160.11;;;5.75
34023;BMP280;20673;48.980;8.138;2022-12-07T14:50:21;100157.33;;;5.75
34023;BMP280;20673;48.980;8.138;2022-12-07T14:52:54;100159.88;;;5.75
34023;BMP280;20673;48.980;8.138;2022-12-07T14:55:27;100158.00;;;5.77
34023;BMP280;20673;48.980;8.138;2022-12-07T14:57:54;100154.50;;;5.75
34023;BMP280;20673;48.980;8.138;2022-12-07T15:00:22;100149.84;;;5.73
34023;BMP280;20673;48.980;8.138;2022-12-07T15:02:49;100150.06;;;5.73
34023;BMP280;20673;48.980;8.138;2022-12-07T15:05:16;100159.63;;;5.70
34023;BMP280;20673;48.980;8.138;2022-12-07T15:07:42;100157.54;;;5.70
34023;BMP280;20673;48.980;8.138;2022-12-07T15:10:25;100158.12;;;5.70
34023;BMP280;20673;48.980;8.138;2022-12-07T15:12:52;100155.68;;;5.67
34023;BMP280;20673;48.980;8.138;2022-12-07T15:15:18;100147.07;;;5.66
34023;BMP280;20673;48.980;8.138;2022-12-07T15:17:44;100147.65;;;5.63
34023;BMP280;20673;48.980;8.138;2022-12-07T15:20:14;100143.02;;;5.61
34023;BMP280;20673;48.980;8.138;2022-12-07T15:22:42;100141.43;;;5.57
34023;BMP280;20673;48.980;8.138;2022-12-07T15:25:09;100149.63;;;5.55
34023;BMP280;20673;48.980;8.138;2022-12-07T15:27:36;100149.48;;;5.53
34023;BMP280;20673;48.980;8.138;2022-12-07T15:30:03;100145.64;;;5.54
34023;BMP280;20673;48.980;8.138;2022-12-07T15:32:29;100145.40;;;5.52
34023;BMP280;20673;48.980;8.138;2022-12-07T15:34:55;100141.86;;;5.52
34023;BMP280;20673;48.980;8.138;2022-12-07T15:37:21;100144.12;;;5.53
34023;BMP280;20673;48.980;8.138;2022-12-07T15:39:47;100147.52;;;5.53
34023;BMP280;20673;48.980;8.138;2022-12-07T15:42:13;100148.62;;;5.52
34023;BMP280;20673;48.980;8.138;2022-12-07T15:44:39;100146.14;;;5.51
34023;BMP280;20673;48.980;8.138;2022-12-07T15:47:23;100148.50;;;5.51
34023;BMP280;20673;48.980;8.138;2022-12-07T15:49:49;100144.20;;;5.53
34023;BMP280;20673;48.980;8.138;2022-12-07T15:52:15;100146.65;;;5.50
34023;BMP280;20673;48.980;8.138;2022-12-07T15:54:41;100145.78;;;5.48
34023;BMP280;20673;48.980;8.138;2022-12-07T15:57:07;100136.42;;;5.47
34023;BMP280;20673;48.980;8.138;2022-12-07T15:59:33;100132.33;;;5.46
34023;BMP280;20673;48.980;8.138;2022-12-07T16:01:59;100129.73;;;5.47
34023;BMP280;20673;48.980;8.138;2022-12-07T16:04:27;100126.47;;;5.44
34023;BMP280;20673;48.980;8.138;2022-12-07T16:06:53;100126.82;;;5.46
34023;BMP280;20673;48.980;8.138;2022-12-07T16:09:19;100124.40;;;5.47
34023;BMP280;20673;48.980;8.138;2022-12-07T16:11:46;100115.14;;;5.45